Time;durP1;ratioP1;P1;durP2;ratioP2;P2;SDS_P1;SDS_P2;PMS_P1;PMS_P2;Temp;Humidity;BMP_temperature;BMP_pressure;BME280_temperature;BME280_humidity;BME280_pressure;Samples;Min_cycle;Max_cycle;Signal;HPM_P1;HPM_P2
2022/04/06 00:01:26;;;;;;;0.10;0.10;;;;;;;;;;5054282;28;20243;-76
2022/04/06 00:03:52;;;;;;;0.10;0.10;;;;;;;;;;5064864;28;20242;-75
2022/04/06 00:06:18;;;;;;;0.10;0.10;;;;;;;;;;5054428;28;20243;-76
2022/04/06 00:08:46;;;;;;;0.10;0.10;;;;;;;;;;5064785;28;20246;-76
2022/04/06 00:11:12;;;;;;;0.10;0.10;;;;;;;;;;5053968;28;20251;-77
2022/04/06 00:13:39;;;;;;;0.10;0.10;;;;;;;;;;5064376;28;20224;-75
2022/04/06 00:16:05;;;;;;;0.10;0.10;;;;;;;;;;5054159;28;20511;-76
2022/04/06 00:18:33;;;;;;;0.10;0.10;;;;;;;;;;5064486;28;20222;-75
2022/04/06 00:21:00;;;;;;;0.10;0.10;;;;;;;;;;5053957;28;20254;-76
2022/04/06 00:23:27;;;;;;;7.53;4.53;;;;;;;;;;5063990;28;20383;-76
2022/04/06 00:25:55;;;;;;;0.10;0.10;;;;;;;;;;5053961;28;20247;-75
2022/04/06 00:28:21;;;;;;;0.10;0.10;;;;;;;;;;5064320;28;20219;-76
2022/04/06 00:30:48;;;;;;;0.10;0.10;;;;;;;;;;5053945;28;20255;-76
2022/04/06 00:33:14;;;;;;;0.10;0.10;;;;;;;;;;5063855;28;20228;-75
2022/04/06 00:35:41;;;;;;;0.10;0.10;;;;;;;;;;5053630;28;20249;-75
2022/04/06 00:38:08;;;;;;;0.10;0.10;;;;;;;;;;5063531;28;20248;-75
2022/04/06 00:40:34;;;;;;;0.10;0.10;;;;;;;;;;5054004;28;20247;-75
2022/04/06 00:43:06;;;;;;;0.10;0.10;;;;;;;;;;5063575;28;20208;-76
2022/04/06 00:45:32;;;;;;;0.10;0.10;;;;;;;;;;5054100;28;20259;-78
2022/04/06 00:47:59;;;;;;;0.10;0.10;;;;;;;;;;5063197;28;20208;-76
2022/04/06 00:50:25;;;;;;;0.20;0.20;;;;;;;;;;5054372;28;20255;-76
2022/04/06 00:52:55;;;;;;;0.10;0.10;;;;;;;;;;5063279;28;20500;-75
2022/04/06 00:55:22;;;;;;;0.10;0.10;;;;;;;;;;5054151;28;20204;-76
2022/04/06 00:57:51;;;;;;;0.10;0.10;;;;;;;;;;5063298;28;20192;-76
2022/04/06 01:00:19;;;;;;;0.20;0.20;;;;;;;;;;5053673;28;20195;-75
2022/04/06 01:02:46;;;;;;;0.10;0.10;;;;;;;;;;5063481;28;20193;-75
2022/04/06 01:05:13;;;;;;;0.10;0.10;;;;;;;;;;5054036;28;20292;-75
2022/04/06 01:07:39;;;;;;;0.10;0.10;;;;;;;;;;5063383;28;20444;-76
2022/04/06 01:10:06;;;;;;;0.10;0.10;;;;;;;;;;5059913;28;20302;-76
2022/04/06 01:12:38;;;;;;;0.10;0.10;;;;;;;;;;5062760;28;20388;-76
2022/04/06 01:15:04;;;;;;;0.10;0.10;;;;;;;;;;5063955;28;20201;-75
2022/04/06 01:17:36;;;;;;;0.10;0.10;;;;;;;;;;5052456;28;20203;-75
2022/04/06 01:20:05;;;;;;;0.10;0.10;;;;;;;;;;5063829;28;20208;-76
2022/04/06 01:22:33;;;;;;;0.10;0.10;;;;;;;;;;5035696;28;20283;-77
2022/04/06 01:25:00;;;;;;;0.10;0.10;;;;;;;;;;5063498;28;20231;-76
2022/04/06 01:27:27;;;;;;;0.10;0.10;;;;;;;;;;5052104;28;20244;-75
2022/04/06 01:29:54;;;;;;;0.10;0.10;;;;;;;;;;5063767;28;20208;-75
2022/04/06 01:32:21;;;;;;;0.20;0.20;;;;;;;;;;5051974;28;20255;-76
2022/04/06 01:34:48;;;;;;;0.10;0.10;;;;;;;;;;5063466;28;20200;-75
2022/04/06 01:37:15;;;;;;;0.10;0.10;;;;;;;;;;5051857;28;20262;-76
2022/04/06 01:39:44;;;;;;;0.10;0.10;;;;;;;;;;5063232;28;20218;-75
2022/04/06 01:42:14;;;;;;;0.10;0.10;;;;;;;;;;5050690;28;20559;-76
2022/04/06 01:44:41;;;;;;;0.10;0.10;;;;;;;;;;5063276;28;20224;-77
2022/04/06 01:47:08;;;;;;;0.10;0.10;;;;;;;;;;5051830;28;20302;-76
2022/04/06 01:52:19;;;;;;;0.27;0.27;;;;;;;;;;5051825;28;20632;-75
2022/04/06 01:54:48;;;;;;;0.10;0.10;;;;;;;;;;5063031;28;20209;-75
2022/04/06 01:57:17;;;;;;;0.10;0.10;;;;;;;;;;5051688;28;20240;-76
2022/04/06 01:59:47;;;;;;;0.10;0.10;;;;;;;;;;5063206;28;20207;-76
2022/04/06 02:02:14;;;;;;;0.10;0.10;;;;;;;;;;5050991;28;20251;-74
2022/04/06 02:04:41;;;;;;;0.10;0.10;;;;;;;;;;5062842;28;20290;-76
2022/04/06 02:07:09;;;;;;;0.10;0.10;;;;;;;;;;5051475;28;20244;-76
2022/04/06 02:09:36;;;;;;;0.10;0.10;;;;;;;;;;5063132;28;20205;-76
2022/04/06 02:12:04;;;;;;;0.20;0.20;;;;;;;;;;5051498;28;20312;-77
2022/04/06 02:14:30;;;;;;;0.10;0.10;;;;;;;;;;5062624;28;20222;-75
2022/04/06 02:16:57;;;;;;;0.10;0.10;;;;;;;;;;5051256;28;20261;-75
2022/04/06 02:19:23;;;;;;;0.10;0.10;;;;;;;;;;5062800;28;20208;-77
2022/04/06 02:21:51;;;;;;;0.10;0.10;;;;;;;;;;5051166;28;20286;-75
2022/04/06 02:24:18;;;;;;;0.20;0.20;;;;;;;;;;5062450;28;20223;-75
2022/04/06 02:26:45;;;;;;;0.10;0.10;;;;;;;;;;5051401;28;20289;-76
2022/04/06 02:29:12;;;;;;;0.10;0.10;;;;;;;;;;5062408;28;20242;-75
2022/04/06 02:31:38;;;;;;;0.10;0.10;;;;;;;;;;5051428;28;20250;-76
2022/04/06 02:34:05;;;;;;;0.57;0.57;;;;;;;;;;5062192;28;20203;-76
2022/04/06 02:36:31;;;;;;;0.10;0.10;;;;;;;;;;5050917;28;20338;-76
2022/04/06 02:39:00;;;;;;;0.10;0.10;;;;;;;;;;5062231;28;20246;-76
2022/04/06 02:41:26;;;;;;;0.10;0.10;;;;;;;;;;5051518;28;20269;-75
2022/04/06 02:43:52;;;;;;;0.10;0.10;;;;;;;;;;5061704;28;20236;-75
2022/04/06 02:46:22;;;;;;;0.10;0.10;;;;;;;;;;5051452;28;20318;-76
2022/04/06 02:48:48;;;;;;;0.30;0.30;;;;;;;;;;5061721;28;20208;-75
2022/04/06 02:51:15;;;;;;;0.47;0.47;;;;;;;;;;5051308;28;20495;-75
2022/04/06 02:53:41;;;;;;;0.50;0.50;;;;;;;;;;5061724;28;20282;-76
2022/04/06 02:56:07;;;;;;;0.10;0.10;;;;;;;;;;5051277;28;20450;-76
2022/04/06 02:58:34;;;;;;;0.10;0.10;;;;;;;;;;5062026;28;20235;-75
2022/04/06 03:01:00;;;;;;;0.10;0.10;;;;;;;;;;5050631;28;20248;-75
2022/04/06 03:03:28;;;;;;;0.10;0.10;;;;;;;;;;5061692;28;20216;-76
2022/04/06 03:05:54;;;;;;;0.17;0.17;;;;;;;;;;5049602;28;20239;-76
2022/04/06 03:08:20;;;;;;;0.10;0.10;;;;;;;;;;5061522;28;20218;-76
2022/04/06 03:10:46;;;;;;;0.10;0.10;;;;;;;;;;5051511;28;20511;-76
2022/04/06 03:13:13;;;;;;;0.10;0.10;;;;;;;;;;5061824;28;20238;-76
2022/04/06 03:15:39;;;;;;;0.10;0.10;;;;;;;;;;5055716;28;20461;-76
2022/04/06 03:18:06;;;;;;;0.10;0.10;;;;;;;;;;5064998;28;20300;-76
2022/04/06 03:20:33;;;;;;;0.20;0.20;;;;;;;;;;5055125;28;20251;-76
2022/04/06 03:23:00;;;;;;;0.10;0.10;;;;;;;;;;5065305;28;20336;-75
2022/04/06 03:25:26;;;;;;;0.17;0.17;;;;;;;;;;5055279;28;20371;-74
2022/04/06 03:27:52;;;;;;;0.10;0.10;;;;;;;;;;5065050;28;20200;-77
2022/04/06 03:30:20;;;;;;;0.10;0.10;;;;;;;;;;5055573;28;20213;-75
2022/04/06 03:32:46;;;;;;;0.10;0.10;;;;;;;;;;5064802;28;20204;-75
2022/04/06 03:35:13;;;;;;;0.10;0.10;;;;;;;;;;5055519;28;20291;-75
2022/04/06 03:37:41;;;;;;;0.20;0.20;;;;;;;;;;5064644;28;20204;-76
2022/04/06 03:40:08;;;;;;;0.10;0.10;;;;;;;;;;5055639;28;20499;-76
2022/04/06 03:42:34;;;;;;;0.10;0.10;;;;;;;;;;5064319;28;20200;-75
2022/04/06 03:45:01;;;;;;;0.30;0.30;;;;;;;;;;5065800;28;20220;-76
2022/04/06 03:47:30;;;;;;;0.10;0.10;;;;;;;;;;5054197;28;20259;-76
2022/04/06 03:49:57;;;;;;;0.10;0.10;;;;;;;;;;5065753;28;20208;-75
2022/04/06 03:52:23;;;;;;;0.10;0.10;;;;;;;;;;5053559;28;20243;-76
2022/04/06 03:54:53;;;;;;;0.10;0.10;;;;;;;;;;5065532;28;20212;-76
2022/04/06 03:57:20;;;;;;;0.10;0.10;;;;;;;;;;5054096;28;20239;-74
2022/04/06 03:59:46;;;;;;;0.10;0.10;;;;;;;;;;5065036;28;20206;-77
2022/04/06 04:02:15;;;;;;;0.10;0.10;;;;;;;;;;5053817;28;20255;-76
2022/04/06 04:04:41;;;;;;;0.10;0.10;;;;;;;;;;5064620;28;20226;-76
2022/04/06 04:07:08;;;;;;;0.10;0.10;;;;;;;;;;5053275;28;20239;-75
2022/04/06 04:09:34;;;;;;;0.10;0.10;;;;;;;;;;5065296;28;20489;-75
2022/04/06 04:12:03;;;;;;;0.10;0.10;;;;;;;;;;5053760;28;20243;-76
2022/04/06 04:14:32;;;;;;;0.10;0.10;;;;;;;;;;5065321;28;20272;-76
2022/04/06 04:16:58;;;;;;;0.83;0.40;;;;;;;;;;5053898;28;20436;-76
2022/04/06 04:19:24;;;;;;;0.10;0.10;;;;;;;;;;5065124;28;20203;-76
2022/04/06 04:21:51;;;;;;;0.10;0.10;;;;;;;;;;5053726;28;20247;-76
2022/04/06 04:24:18;;;;;;;0.10;0.10;;;;;;;;;;5064181;28;20228;-77
2022/04/06 04:26:44;;;;;;;0.10;0.10;;;;;;;;;;5053693;28;20294;-75
2022/04/06 04:29:16;;;;;;;0.10;0.10;;;;;;;;;;5064947;28;20204;-77
2022/04/06 04:31:42;;;;;;;0.10;0.10;;;;;;;;;;5053715;28;20243;-77
2022/04/06 04:34:09;;;;;;;0.10;0.10;;;;;;;;;;5064479;28;20211;-75
2022/04/06 04:36:35;;;;;;;0.10;0.10;;;;;;;;;;5053569;28;20244;-76
2022/04/06 04:39:02;;;;;;;0.10;0.10;;;;;;;;;;5046768;28;20208;-77
2022/04/06 04:41:29;;;;;;;0.10;0.10;;;;;;;;;;5052388;28;20249;-76
2022/04/06 04:43:55;;;;;;;0.10;0.10;;;;;;;;;;5064171;28;20196;-76
2022/04/06 04:46:26;;;;;;;0.10;0.10;;;;;;;;;;5053400;28;20244;-77
2022/04/06 04:48:52;;;;;;;0.10;0.10;;;;;;;;;;5063969;28;20484;-76
2022/04/06 04:51:18;;;;;;;0.10;0.10;;;;;;;;;;5053239;28;20415;-76
2022/04/06 04:53:45;;;;;;;0.10;0.10;;;;;;;;;;5063729;28;20218;-75
2022/04/06 04:56:11;;;;;;;0.10;0.10;;;;;;;;;;5053269;28;20244;-75
2022/04/06 04:58:38;;;;;;;0.20;0.20;;;;;;;;;;5063794;28;20399;-75
2022/04/06 05:01:04;;;;;;;0.10;0.10;;;;;;;;;;5053330;28;20346;-75
2022/04/06 05:03:32;;;;;;;0.10;0.10;;;;;;;;;;5063480;28;20212;-75
2022/04/06 05:05:58;;;;;;;0.10;0.10;;;;;;;;;;5053280;28;20348;-75
2022/04/06 05:08:25;;;;;;;0.10;0.10;;;;;;;;;;5063574;28;20242;-77
2022/04/06 05:10:51;;;;;;;0.10;0.10;;;;;;;;;;5053241;28;20563;-75
2022/04/06 05:13:18;;;;;;;0.10;0.10;;;;;;;;;;5063397;28;20206;-75
2022/04/06 05:15:45;;;;;;;0.10;0.10;;;;;;;;;;5053018;28;20248;-75
2022/04/06 05:18:11;;;;;;;0.10;0.10;;;;;;;;;;5063235;28;20242;-75
2022/04/06 05:20:39;;;;;;;0.10;0.10;;;;;;;;;;5053200;28;20251;-76
2022/04/06 05:23:05;;;;;;;0.10;0.10;;;;;;;;;;5062654;28;20215;-76
2022/04/06 05:25:32;;;;;;;0.10;0.10;;;;;;;;;;5053361;28;20513;-76
2022/04/06 05:27:58;;;;;;;0.10;0.10;;;;;;;;;;5062659;28;20212;-76
2022/04/06 05:30:25;;;;;;;0.10;0.10;;;;;;;;;;5053524;28;20254;-75
2022/04/06 05:32:53;;;;;;;0.10;0.10;;;;;;;;;;5062637;28;20263;-75
2022/04/06 05:35:19;;;;;;;0.10;0.10;;;;;;;;;;5053168;28;20200;-77
2022/04/06 05:37:47;;;;;;;0.10;0.10;;;;;;;;;;5061645;28;20507;-76
2022/04/06 05:40:15;;;;;;;0.10;0.10;;;;;;;;;;5053118;28;20271;-75
2022/04/06 05:42:41;;;;;;;0.10;0.10;;;;;;;;;;5062468;28;20212;-75
2022/04/06 05:45:08;;;;;;;0.37;0.30;;;;;;;;;;5052620;28;20281;-77
2022/04/06 05:47:37;;;;;;;0.10;0.10;;;;;;;;;;5061970;28;20211;-76
2022/04/06 05:50:05;;;;;;;0.10;0.10;;;;;;;;;;5063049;28;20216;-75
2022/04/06 05:52:31;;;;;;;0.10;0.10;;;;;;;;;;5035228;28;20215;-75
2022/04/06 05:55:01;;;;;;;0.10;0.10;;;;;;;;;;5062846;28;20507;-74
2022/04/06 05:57:28;;;;;;;0.10;0.10;;;;;;;;;;5051790;28;20240;-75
2022/04/06 05:59:54;;;;;;;0.90;0.90;;;;;;;;;;5063061;28;20211;-75
2022/04/06 06:02:23;;;;;;;0.10;0.10;;;;;;;;;;5051519;28;20249;-76
2022/04/06 06:04:49;;;;;;;0.10;0.10;;;;;;;;;;5062807;28;20248;-76
2022/04/06 06:07:16;;;;;;;0.10;0.10;;;;;;;;;;5051350;28;20244;-74
2022/04/06 06:09:42;;;;;;;0.10;0.10;;;;;;;;;;5062839;28;20206;-76
2022/04/06 06:12:14;;;;;;;0.10;0.10;;;;;;;;;;5051486;28;20408;-78
2022/04/06 06:14:41;;;;;;;0.10;0.10;;;;;;;;;;5062776;28;20192;-75
2022/04/06 06:17:08;;;;;;;0.10;0.10;;;;;;;;;;5050797;28;20244;-77
2022/04/06 06:19:34;;;;;;;0.10;0.10;;;;;;;;;;5062675;28;20214;-76
2022/04/06 06:22:01;;;;;;;0.10;0.10;;;;;;;;;;5050717;28;20250;-77
2022/04/06 06:24:29;;;;;;;0.10;0.10;;;;;;;;;;5062415;28;20208;-78
2022/04/06 06:27:19;;;;;;;0.10;0.10;;;;;;;;;;5034663;28;20506;-79
2022/04/06 06:30:00;;;;;;;0.10;0.10;;;;;;;;;;5041058;28;20254;-79
2022/04/06 06:33:11;;;;;;;0.10;0.10;;;;;;;;;;4924496;28;20242;-79
2022/04/06 06:35:47;;;;;;;0.20;0.20;;;;;;;;;;4971127;28;20341;-78
2022/04/06 06:38:46;;;;;;;;;;;;;;;;;;;;;
2022/04/06 06:56:19;;;;;;;0.10;0.10;;;;;;;;;;4879580;29;20240;-76
2022/04/06 06:58:51;;;;;;;0.10;0.10;;;;;;;;;;4905052;29;20538;-80
2022/04/06 07:01:21;;;;;;;0.10;0.10;;;;;;;;;;4902893;29;20253;-78
2022/04/06 07:03:52;;;;;;;0.30;0.30;;;;;;;;;;4942970;29;20212;-78
2022/04/06 07:16:33;;;;;;;0.10;0.10;;;;;;;;;;4873420;29;20486;-78
2022/04/06 07:19:29;;;;;;;0.10;0.10;;;;;;;;;;4867601;29;20224;-77
2022/04/06 07:21:58;;;;;;;0.10;0.10;;;;;;;;;;4858560;29;20298;-78
2022/04/06 07:46:20;;;;;;;0.10;0.10;;;;;;;;;;5027331;28;20241;-74
2022/04/06 07:48:46;;;;;;;0.10;0.10;;;;;;;;;;5021866;28;20206;-74
2022/04/06 07:51:16;;;;;;;0.10;0.10;;;;;;;;;;5020175;28;20249;-75
2022/04/06 07:53:43;;;;;;;0.10;0.10;;;;;;;;;;5027908;28;20205;-76
2022/04/06 07:56:10;;;;;;;0.10;0.10;;;;;;;;;;5018782;28;20265;-75
2022/04/06 07:58:58;;;;;;;0.10;0.10;;;;;;;;;;5029511;28;20447;-78
2022/04/06 08:01:25;;;;;;;0.10;0.10;;;;;;;;;;4994917;28;20237;-80
2022/04/06 08:04:02;;;;;;;0.10;0.10;;;;;;;;;;4984753;28;20254;-79
2022/04/06 08:06:31;;;;;;;0.10;0.10;;;;;;;;;;4974316;28;20461;-79
2022/04/06 08:08:59;;;;;;;0.10;0.10;;;;;;;;;;4984630;28;20261;-79
2022/04/06 08:11:35;;;;;;;;;;;;;;;;;;;;;
2022/04/06 08:14:04;;;;;;;0.10;0.10;;;;;;;;;;4984513;28;20451;-80
2022/04/06 08:16:33;;;;;;;0.10;0.10;;;;;;;;;;4974550;28;20568;-80
2022/04/06 08:36:31;;;;;;;0.10;0.10;;;;;;;;;;4942318;29;20450;-81
2022/04/06 08:39:01;;;;;;;0.13;0.13;;;;;;;;;;4965210;29;20211;-80
2022/04/06 08:41:36;;;;;;;0.10;0.10;;;;;;;;;;4944253;29;20429;-80
2022/04/06 08:44:16;;;;;;;0.30;0.30;;;;;;;;;;4945605;29;20258;-81
2022/04/06 08:56:21;;;;;;;0.10;0.10;;;;;;;;;;4839328;29;20244;-81
2022/04/06 08:58:48;;;;;;;0.10;0.10;;;;;;;;;;4907346;29;20478;-78
2022/04/06 09:09:43;;;;;;;0.10;0.10;;;;;;;;;;4854753;29;20200;-82
2022/04/06 09:12:17;;;;;;;0.10;0.10;;;;;;;;;;4894081;29;20254;-82
2022/04/06 09:14:50;;;;;;;0.10;0.10;;;;;;;;;;4926116;29;20226;-84
2022/04/06 09:17:33;;;;;;;0.10;0.10;;;;;;;;;;4898924;29;20311;-82
2022/04/06 09:22:40;;;;;;;0.10;0.10;;;;;;;;;;4862542;29;20279;-73
2022/04/06 09:49:14;;;;;;;0.10;0.10;;;;;;;;;;5205710;23;20297;-71
2022/04/06 09:51:41;;;;;;;0.10;0.10;;;;;;;;;;4969198;28;20256;-75
2022/04/06 09:54:09;;;;;;;0.10;0.10;;;;;;;;;;4984258;28;20226;-74
2022/04/06 09:56:37;;;;;;;0.10;0.10;;;;;;;;;;4973301;28;20562;-74
2022/04/06 09:59:03;;;;;;;0.10;0.10;;;;;;;;;;4984397;28;20207;-75
2022/04/06 10:01:32;;;;;;;0.10;0.10;;;;;;;;;;4973358;28;20333;-74
2022/04/06 10:04:01;;;;;;;0.10;0.10;;;;;;;;;;4984154;28;20207;-74
2022/04/06 10:06:30;;;;;;;0.10;0.10;;;;;;;;;;4972690;28;20244;-75
2022/04/06 10:08:57;;;;;;;0.10;0.10;;;;;;;;;;4984049;28;20206;-77
2022/04/06 10:11:23;;;;;;;0.10;0.10;;;;;;;;;;4973290;28;20249;-76
2022/04/06 10:13:50;;;;;;;0.10;0.10;;;;;;;;;;4983770;28;20580;-76
2022/04/06 10:16:17;;;;;;;0.10;0.10;;;;;;;;;;4973457;28;20312;-75
2022/04/06 10:18:44;;;;;;;0.50;0.50;;;;;;;;;;4983404;28;20382;-76
2022/04/06 10:27:27;;;;;;;0.10;0.10;;;;;;;;;;4938594;28;20588;-75
2022/04/06 10:30:10;;;;;;;0.43;0.43;;;;;;;;;;4984096;28;20206;-74
2022/04/06 10:32:37;;;;;;;0.10;0.10;;;;;;;;;;4895474;29;20220;-74
2022/04/06 10:35:16;;;;;;;0.10;0.10;;;;;;;;;;4905223;29;20308;-76
2022/04/06 10:37:48;;;;;;;0.10;0.10;;;;;;;;;;4923954;29;20203;-77
2022/04/06 10:40:15;;;;;;;0.20;0.20;;;;;;;;;;4914578;29;20289;-77
2022/04/06 10:42:45;;;;;;;0.10;0.10;;;;;;;;;;4924216;29;20335;-76
2022/04/06 10:45:29;;;;;;;0.27;0.27;;;;;;;;;;4914815;29;20267;-76
2022/04/06 10:48:14;;;;;;;0.10;0.10;;;;;;;;;;4923679;29;20243;-74
2022/04/06 10:50:41;;;;;;;0.10;0.10;;;;;;;;;;4914268;29;20246;-76
2022/04/06 10:53:26;;;;;;;1.30;1.20;;;;;;;;;;4924064;29;20220;-77
2022/04/06 10:55:56;;;;;;;2.17;0.37;;;;;;;;;;4914344;29;20261;-76
2022/04/06 10:58:26;;;;;;;0.13;0.13;;;;;;;;;;4924116;29;20579;-77
2022/04/06 11:01:08;;;;;;;0.10;0.10;;;;;;;;;;4898534;29;20498;-76
2022/04/06 11:03:36;;;;;;;0.87;0.87;;;;;;;;;;4950403;28;20210;-78
2022/04/06 11:06:03;;;;;;;0.10;0.10;;;;;;;;;;4972895;28;20290;-76
2022/04/06 11:11:38;;;;;;;0.10;0.10;;;;;;;;;;4972977;28;20249;-77
2022/04/06 11:14:07;;;;;;;0.10;0.10;;;;;;;;;;4983267;28;20376;-78
2022/04/06 11:16:40;;;;;;;0.10;0.10;;;;;;;;;;4972902;28;20242;-75
2022/04/06 11:21:49;;;;;;;0.10;0.10;;;;;;;;;;4966881;28;20246;-76
2022/04/06 11:24:16;;;;;;;0.10;0.10;;;;;;;;;;4983617;28;20207;-77
2022/04/06 11:26:43;;;;;;;0.10;0.10;;;;;;;;;;4972046;28;20242;-74
2022/04/06 11:29:11;;;;;;;0.13;0.13;;;;;;;;;;4983373;28;20380;-76
2022/04/06 11:31:52;;;;;;;0.10;0.10;;;;;;;;;;4972547;28;20346;-75
2022/04/06 11:34:29;;;;;;;0.10;0.10;;;;;;;;;;4984068;28;20290;-75
2022/04/06 11:36:57;;;;;;;0.20;0.20;;;;;;;;;;4976122;28;20347;-74
2022/04/06 11:42:19;;;;;;;0.10;0.10;;;;;;;;;;4972287;28;20249;-76
2022/04/06 11:44:46;;;;;;;0.10;0.10;;;;;;;;;;4987485;28;20225;-76
2022/04/06 11:47:13;;;;;;;0.10;0.10;;;;;;;;;;4975659;28;20267;-78
2022/04/06 11:49:39;;;;;;;0.10;0.10;;;;;;;;;;4987018;28;20282;-77
2022/04/06 11:52:07;;;;;;;0.10;0.10;;;;;;;;;;4976081;28;20242;-76
2022/04/06 11:54:34;;;;;;;0.10;0.10;;;;;;;;;;4987420;28;20266;-77
2022/04/06 11:57:01;;;;;;;0.20;0.20;;;;;;;;;;4975424;28;20248;-79
2022/04/06 11:59:31;;;;;;;0.10;0.10;;;;;;;;;;4986963;28;20245;-73
2022/04/06 12:02:02;;;;;;;0.10;0.10;;;;;;;;;;4975861;28;20468;-80
2022/04/06 12:04:28;;;;;;;0.10;0.10;;;;;;;;;;4986988;28;20218;-77
2022/04/06 12:06:55;;;;;;;0.10;0.10;;;;;;;;;;4975310;28;20405;-75
2022/04/06 12:09:22;;;;;;;0.10;0.10;;;;;;;;;;4986837;28;20208;-74
2022/04/06 12:11:52;;;;;;;0.10;0.10;;;;;;;;;;4974907;28;20381;-75
2022/04/06 12:14:19;;;;;;;0.10;0.10;;;;;;;;;;4986653;28;20211;-76
2022/04/06 12:16:45;;;;;;;0.10;0.10;;;;;;;;;;4975141;28;20241;-77
2022/04/06 12:19:15;;;;;;;0.10;0.10;;;;;;;;;;4986160;28;20206;-77
2022/04/06 12:21:43;;;;;;;0.10;0.10;;;;;;;;;;4975542;28;20322;-76
2022/04/06 12:24:11;;;;;;;0.10;0.10;;;;;;;;;;4986220;28;20309;-78
2022/04/06 12:26:45;;;;;;;0.10;0.10;;;;;;;;;;4975031;28;20249;-76
2022/04/06 12:29:13;;;;;;;0.10;0.10;;;;;;;;;;4984555;28;20210;-78
2022/04/06 12:31:43;;;;;;;0.10;0.10;;;;;;;;;;4975687;28;20308;-76
2022/04/06 12:34:09;;;;;;;0.10;0.10;;;;;;;;;;4986208;28;20229;-78
2022/04/06 12:36:38;;;;;;;0.10;0.10;;;;;;;;;;4975445;28;20338;-78
2022/04/06 12:39:06;;;;;;;0.10;0.10;;;;;;;;;;4986000;28;20281;-77
2022/04/06 12:41:35;;;;;;;0.10;0.10;;;;;;;;;;4975160;28;20281;-76
2022/04/06 12:44:03;;;;;;;0.10;0.10;;;;;;;;;;4985907;28;20207;-78
2022/04/06 12:46:42;;;;;;;0.10;0.10;;;;;;;;;;4974899;28;20274;-77
2022/04/06 12:49:29;;;;;;;0.10;0.10;;;;;;;;;;4985983;28;20520;-77
2022/04/06 12:52:12;;;;;;;0.10;0.10;;;;;;;;;;4974550;28;20475;-75
2022/04/06 12:54:39;;;;;;;0.10;0.10;;;;;;;;;;4986439;28;20217;-76
2022/04/06 12:57:07;;;;;;;0.13;0.13;;;;;;;;;;4974881;28;20238;-74
2022/04/06 12:59:37;;;;;;;0.10;0.10;;;;;;;;;;4985894;28;20210;-75
2022/04/06 13:02:04;;;;;;;0.17;0.17;;;;;;;;;;4974485;28;20310;-74
2022/04/06 13:04:31;;;;;;;0.10;0.10;;;;;;;;;;4985825;28;20208;-75
2022/04/06 13:06:58;;;;;;;0.10;0.10;;;;;;;;;;4974372;28;20238;-75
2022/04/06 13:09:28;;;;;;;0.93;0.93;;;;;;;;;;4985723;28;20269;-75
2022/04/06 13:11:55;;;;;;;0.10;0.10;;;;;;;;;;4972212;28;20250;-75
2022/04/06 13:14:23;;;;;;;0.10;0.10;;;;;;;;;;4985443;28;20213;-74
2022/04/06 13:16:52;;;;;;;0.30;0.30;;;;;;;;;;4974312;28;20458;-75
2022/04/06 13:19:18;;;;;;;3.20;0.70;;;;;;;;;;4985067;28;20207;-76
2022/04/06 13:21:45;;;;;;;0.10;0.10;;;;;;;;;;4974201;28;20254;-75
2022/04/06 13:24:12;;;;;;;0.37;0.37;;;;;;;;;;4985116;28;20211;-75
2022/04/06 13:26:39;;;;;;;0.10;0.10;;;;;;;;;;4974271;28;20298;-74
2022/04/06 13:29:06;;;;;;;0.10;0.10;;;;;;;;;;4984831;28;20210;-73
2022/04/06 13:31:32;;;;;;;0.10;0.10;;;;;;;;;;4974454;28;20279;-76
2022/04/06 13:33:58;;;;;;;0.53;0.53;;;;;;;;;;4984521;28;20443;-75
2022/04/06 13:36:25;;;;;;;0.20;0.20;;;;;;;;;;4974281;28;20238;-75
2022/04/06 13:38:52;;;;;;;0.10;0.10;;;;;;;;;;4984344;28;20230;-75
2022/04/06 13:41:18;;;;;;;0.10;0.10;;;;;;;;;;4974415;28;20251;-75
2022/04/06 13:43:48;;;;;;;0.10;0.10;;;;;;;;;;4984435;28;20514;-76
2022/04/06 13:46:15;;;;;;;0.10;0.10;;;;;;;;;;4974573;28;20623;-73
2022/04/06 13:48:41;;;;;;;0.10;0.10;;;;;;;;;;4984321;28;20445;-75
2022/04/06 13:51:08;;;;;;;0.10;0.10;;;;;;;;;;4974095;28;20292;-74
2022/04/06 13:53:34;;;;;;;0.10;0.10;;;;;;;;;;4984244;28;20230;-76
2022/04/06 13:56:00;;;;;;;0.10;0.10;;;;;;;;;;4974209;28;20344;-75
2022/04/06 13:58:29;;;;;;;0.10;0.10;;;;;;;;;;4983446;28;20206;-75
2022/04/06 14:01:01;;;;;;;0.10;0.10;;;;;;;;;;4974354;28;20259;-76
2022/04/06 14:03:30;;;;;;;0.10;0.10;;;;;;;;;;4983952;28;20229;-76
2022/04/06 14:05:58;;;;;;;0.10;0.10;;;;;;;;;;4973954;28;20514;-76
2022/04/06 14:08:25;;;;;;;0.10;0.10;;;;;;;;;;4983926;28;20257;-75
2022/04/06 14:10:52;;;;;;;0.10;0.10;;;;;;;;;;4973567;28;20271;-76
2022/04/06 14:13:21;;;;;;;0.10;0.10;;;;;;;;;;4983799;28;20440;-75
2022/04/06 14:15:47;;;;;;;0.10;0.10;;;;;;;;;;4973761;28;20254;-75
2022/04/06 14:18:18;;;;;;;0.10;0.10;;;;;;;;;;4983631;28;20206;-73
2022/04/06 14:20:45;;;;;;;0.10;0.10;;;;;;;;;;4974111;28;20408;-74
2022/04/06 14:23:12;;;;;;;0.10;0.10;;;;;;;;;;4983329;28;20217;-74
2022/04/06 14:25:38;;;;;;;0.10;0.10;;;;;;;;;;4973842;28;20309;-75
2022/04/06 14:28:05;;;;;;;0.10;0.10;;;;;;;;;;4983138;28;20232;-75
2022/04/06 14:30:32;;;;;;;0.10;0.10;;;;;;;;;;4973837;28;20272;-75
2022/04/06 14:32:58;;;;;;;0.10;0.10;;;;;;;;;;4966910;28;20208;-74
2022/04/06 14:35:26;;;;;;;0.20;0.20;;;;;;;;;;4973637;28;20257;-76
2022/04/06 14:37:53;;;;;;;0.10;0.10;;;;;;;;;;4982999;28;20210;-74
2022/04/06 14:40:19;;;;;;;0.10;0.10;;;;;;;;;;4973664;28;20224;-74
2022/04/06 14:42:45;;;;;;;0.10;0.10;;;;;;;;;;4982887;28;20238;-74
2022/04/06 14:45:12;;;;;;;0.10;0.10;;;;;;;;;;4973701;28;20253;-75
2022/04/06 14:47:39;;;;;;;0.10;0.10;;;;;;;;;;4982545;28;20246;-75
2022/04/06 14:50:07;;;;;;;0.10;0.10;;;;;;;;;;4976269;28;20206;-76
2022/04/06 14:52:35;;;;;;;0.10;0.10;;;;;;;;;;4982473;28;20284;-75
2022/04/06 14:55:02;;;;;;;0.10;0.10;;;;;;;;;;4983437;28;20525;-75
2022/04/06 14:57:28;;;;;;;0.10;0.10;;;;;;;;;;4972643;28;20241;-74
2022/04/06 14:59:55;;;;;;;0.10;0.10;;;;;;;;;;4983546;28;20273;-73
2022/04/06 15:02:24;;;;;;;0.10;0.10;;;;;;;;;;4972893;28;20280;-73
2022/04/06 15:04:50;;;;;;;0.10;0.10;;;;;;;;;;4983461;28;20213;-73
2022/04/06 15:07:18;;;;;;;0.10;0.10;;;;;;;;;;4972490;28;20245;-75
2022/04/06 15:09:46;;;;;;;0.10;0.10;;;;;;;;;;4986353;28;20209;-73
2022/04/06 15:12:12;;;;;;;0.10;0.10;;;;;;;;;;4976309;28;20282;-74
2022/04/06 15:14:38;;;;;;;0.10;0.10;;;;;;;;;;4987585;28;20285;-77
2022/04/06 15:17:06;;;;;;;0.10;0.10;;;;;;;;;;4976221;28;20458;-76
2022/04/06 15:19:32;;;;;;;0.10;0.10;;;;;;;;;;4987347;28;20259;-76
2022/04/06 15:21:59;;;;;;;0.10;0.10;;;;;;;;;;4976349;28;20574;-76
2022/04/06 15:24:25;;;;;;;0.10;0.10;;;;;;;;;;4986923;28;20210;-74
2022/04/06 15:26:53;;;;;;;0.10;0.10;;;;;;;;;;4976287;28;20254;-71
2022/04/06 15:29:19;;;;;;;0.10;0.10;;;;;;;;;;4987397;28;20446;-76
2022/04/06 15:31:46;;;;;;;0.10;0.10;;;;;;;;;;4976308;28;20246;-75
2022/04/06 15:37:18;;;;;;;0.10;0.10;;;;;;;;;;4987035;28;20202;-76
2022/04/06 15:39:45;;;;;;;0.10;0.10;;;;;;;;;;4987167;28;20239;-77
2022/04/06 15:42:16;;;;;;;0.20;0.20;;;;;;;;;;4975943;28;20249;-75
2022/04/06 15:44:42;;;;;;;0.10;0.10;;;;;;;;;;4987378;28;20273;-75
2022/04/06 15:47:09;;;;;;;0.10;0.10;;;;;;;;;;4976302;28;20274;-75
2022/04/06 15:49:35;;;;;;;0.43;0.43;;;;;;;;;;4987140;28;20224;-75
2022/04/06 15:52:01;;;;;;;0.10;0.10;;;;;;;;;;4976278;28;20261;-75
2022/04/06 15:54:27;;;;;;;0.10;0.10;;;;;;;;;;4987099;28;20210;-75
2022/04/06 15:56:54;;;;;;;0.10;0.10;;;;;;;;;;4976108;28;20285;-75
2022/04/06 15:59:21;;;;;;;0.10;0.10;;;;;;;;;;4986602;28;20250;-74
2022/04/06 16:01:48;;;;;;;0.10;0.10;;;;;;;;;;4975706;28;20321;-76
2022/04/06 16:04:16;;;;;;;0.10;0.10;;;;;;;;;;4986870;28;20241;-76
2022/04/06 16:06:43;;;;;;;0.10;0.10;;;;;;;;;;4975442;28;20357;-76
2022/04/06 16:09:09;;;;;;;0.10;0.10;;;;;;;;;;4986307;28;20411;-74
2022/04/06 16:11:36;;;;;;;0.10;0.10;;;;;;;;;;4975721;28;20293;-76
2022/04/06 16:14:02;;;;;;;0.10;0.10;;;;;;;;;;4986199;28;20210;-75
2022/04/06 16:16:30;;;;;;;0.10;0.10;;;;;;;;;;4975862;28;20258;-77
2022/04/06 16:18:58;;;;;;;0.10;0.10;;;;;;;;;;4986383;28;20203;-71
2022/04/06 16:21:24;;;;;;;0.57;0.57;;;;;;;;;;4974864;28;20344;-69
2022/04/06 16:23:52;;;;;;;0.23;0.23;;;;;;;;;;4985708;28;20253;-68
2022/04/06 16:26:18;;;;;;;1.20;1.13;;;;;;;;;;4975438;28;20257;-71
2022/04/06 16:28:45;;;;;;;0.10;0.10;;;;;;;;;;4985818;28;20284;-69
2022/04/06 16:31:11;;;;;;;0.10;0.10;;;;;;;;;;4975361;28;20262;-70
2022/04/06 16:33:38;;;;;;;0.10;0.10;;;;;;;;;;4985309;28;20253;-70
2022/04/06 16:36:06;;;;;;;0.10;0.10;;;;;;;;;;4975544;28;20246;-70
2022/04/06 16:38:32;;;;;;;0.10;0.10;;;;;;;;;;4985525;28;20203;-68
2022/04/06 16:40:59;;;;;;;0.10;0.10;;;;;;;;;;4975613;28;20509;-71
2022/04/06 16:43:26;;;;;;;0.10;0.10;;;;;;;;;;4985473;28;20435;-72
2022/04/06 16:45:52;;;;;;;0.10;0.10;;;;;;;;;;4975255;28;20246;-70
2022/04/06 16:48:18;;;;;;;0.10;0.10;;;;;;;;;;4984941;28;20257;-71
2022/04/06 16:53:30;;;;;;;0.10;0.10;;;;;;;;;;4985086;28;20293;-70
2022/04/06 16:55:56;;;;;;;0.10;0.10;;;;;;;;;;4975244;28;20270;-70
2022/04/06 16:58:22;;;;;;;0.10;0.10;;;;;;;;;;4985211;28;20205;-69
2022/04/06 17:00:49;;;;;;;0.10;0.10;;;;;;;;;;4975241;28;20277;-71
2022/04/06 17:03:15;;;;;;;0.10;0.10;;;;;;;;;;4985054;28;20211;-69
2022/04/06 17:05:41;;;;;;;0.10;0.10;;;;;;;;;;4975120;28;20581;-68